ADDS METAR Data INFO
IDs: Format: Raw Decoded Include TAF

Data at: 0428 UTC 24 Apr 2018

KBWD 240415Z AUTO 00000KT 10SM FEW044 14/06 A3005 RMK AO2
KBWD 240355Z AUTO 00000KT 10SM FEW044 15/07 A3005 RMK AO2
KBWD 240335Z AUTO 00000KT 10SM FEW041 FEW050 17/06 A3005 RMK AO2
KBWD 240315Z AUTO 00000KT 10SM FEW045 17/06 A3005 RMK AO2
KBWD 240255Z AUTO 06004KT 10SM FEW047 18/07 A3004 RMK AO2
KBWD 240235Z AUTO 07004KT 10SM FEW043 FEW049 18/06 A3004 RMK AO2
KBWD 240215Z AUTO 06006KT 10SM FEW046 20/07 A3003 RMK AO2
KBWD 240155Z AUTO 07005KT 10SM FEW049 20/06 A3003 RMK AO2
KBWD 240135Z AUTO 07004KT 10SM CLR 20/05 A3002 RMK AO2
KBWD 240115Z AUTO 03005KT 10SM CLR 23/05 A3002 RMK AO2
KBWD 240055Z AUTO 04004KT 10SM CLR 24/05 A3001 RMK AO2
KBWD 240035Z AUTO 00000KT 10SM CLR 25/04 A3001 RMK AO2
KBWD 240015Z AUTO 02005KT 10SM CLR 25/05 A3001 RMK AO2
KBWD 232355Z AUTO 34004KT 10SM CLR 26/04 A3001 RMK AO2
KBWD 232335Z AUTO 33004KT 10SM CLR 26/05 A3001 RMK AO2
KBWD 232315Z AUTO 35007KT 10SM CLR 26/04 A3001 RMK AO2
KBWD 232255Z AUTO 30005KT 10SM CLR 26/05 A3001 RMK AO2
KBWD 232235Z AUTO 31008KT 10SM CLR 27/05 A3002 RMK AO2
KBWD 232215Z AUTO 00000KT 10SM CLR 25/04 A3002 RMK AO2
KBWD 232155Z AUTO 35006KT 10SM CLR 26/05 A3002 RMK AO2
KBWD 232135Z AUTO 00000KT 10SM CLR 26/05 A3003 RMK AO2
KBWD 232115Z AUTO 26006KT 10SM CLR 25/04 A3004 RMK AO2
KBWD 231855Z AUTO 25007KT 10SM CLR 24/04 A3011 RMK AO2
KBWD 231835Z AUTO 31008G15KT 260V330 10SM CLR 24/05 A3012 RMK AO2
KBWD 231815Z AUTO 32010KT 290V010 10SM CLR 23/05 A3012 RMK AO2
KBWD 231755Z AUTO 32009KT 10SM CLR 23/05 A3014 RMK AO2
KBWD 231735Z AUTO 35009G15KT 310V020 10SM CLR 23/05 A3015 RMK AO2
KBWD 231615Z AUTO 32008G15KT 10SM CLR 20/06 A3017 RMK AO2
KBWD 231555Z AUTO 32011G16KT 280V340 10SM CLR 20/07 A3017 RMK AO2
KBWD 231535Z AUTO 31005KT 10SM CLR 19/07 A3017 RMK AO2
KBWD 231402Z 00000KT 10SM CLR 13/05 A3018
KBWD 231304Z 00000KT 10SM CLR 07/04 A3017
KBWD 231200Z 00000KT 10SM CLR 05/03 A3014
KBWD 231057Z 00000KT 10SM FEW031 SCT040 04/02 A3012
KBWD 231014Z 00000KT 10SM FEW042 05/03 A3011
KBWD 222155Z AUTO 33012G19KT 10SM CLR 22/03 A3005 RMK AO2
KBWD 222135Z AUTO 31012G15KT 10SM CLR 22/03 A3006 RMK AO2
KBWD 222015Z AUTO 36010G19KT 10SM CLR 21/04 A3009 RMK AO2
KBWD 221955Z AUTO 30013G24KT 10SM CLR 20/04 A3010 RMK AO2
KBWD 221935Z AUTO 33012G20KT 10SM CLR 20/04 A3011 RMK AO2
KBWD 221855Z AUTO 32007G18KT 10SM CLR 19/04 A3012 RMK AO2
KBWD 221755Z 31012G18KT 10SM CLR 18/04 A3015
KBWD 221726Z 32017G30KT 10SM FEW043 18/04 A3016